Poio, Spain
Current Conditions -  °F | °C
As of 10:00 AM on Friday 19 Dec 2014 (Local Time) from LEVX Reporting Station
Overcast Overcast  
Wind Chill: 39°   Ceiling: 2100
Heat Index: 43°   Visibility: 6mi
Dew Point: 41°   Wind: 6mph
Humidity: 93%   Direction: 190°S
Pressure: 30.53"   Gusts: NA
Location:  42.44°N, 8.71°W
Report Text: LEVX 190900Z 19005KT 150V230 9999 OVC021 06/05 Q1034 NOSIG
Loading
Personal Weather Stations






























Interactive Weather Map New forecast layout! Learn more

10-Day Weather Forecast

Advertisements
Track Severe Weather on mobile